Terminal Aerodrome Forecast
Issued by NWS

Home | Current Version | Previous Version | Text Only | Print | Product List | Glossary Off
Versions: 1 2 3 4 5 6 7 8 9 10 11 12 13

580
FTUS43 KTOP 201139
TAFFOE
TAF
KFOE 201139Z 2012/2112 11005KT P6SM FEW200
     FM201500 14013G19KT P6SM SCT200
     FM210000 10008KT P6SM OVC100
     FM211100 10007KT P6SM VCSH OVC040=

USA.gov is the U.S. government's official web portal to all federal, state and local government web resources and services.